Time;durP1;ratioP1;P1;durP2;ratioP2;P2;SDS_P1;SDS_P2;PMS_P1;PMS_P2;Temp;Humidity;BMP_temperature;BMP_pressure;BME280_temperature;BME280_humidity;BME280_pressure;Samples;Min_cycle;Max_cycle;Signal;HPM_P1;HPM_P2
2022/11/22 00:01:48;;;;;;;6.30;3.22;;;;;;;5.92;100.00;96887.63;5091071;28;20040;-61
2022/11/22 00:04:13;;;;;;;5.50;2.72;;;;;;;5.88;100.00;96879.41;5078017;28;20039;-62
2022/11/22 00:06:39;;;;;;;5.25;2.95;;;;;;;5.95;100.00;96890.72;5108028;27;20027;-60
2022/11/22 00:09:04;;;;;;;6.53;2.80;;;;;;;5.94;100.00;96880.53;5093033;28;20173;-60
2022/11/22 00:11:29;;;;;;;6.60;3.28;;;;;;;5.90;100.00;96867.16;5105305;28;20036;-62
2022/11/22 00:13:55;;;;;;;6.95;2.88;;;;;;;5.80;100.00;96857.94;5099042;28;20403;-60
2022/11/22 00:16:20;;;;;;;6.85;3.17;;;;;;;5.78;100.00;96860.66;5107421;28;20028;-61
2022/11/22 00:18:46;;;;;;;6.22;3.38;;;;;;;5.82;100.00;96863.72;5095298;28;20034;-60
2022/11/22 00:21:11;;;;;;;7.18;3.17;;;;;;;5.81;100.00;96865.50;5094048;28;20054;-62
2022/11/22 00:23:36;;;;;;;6.10;3.63;;;;;;;5.71;100.00;96837.28;5084914;28;20076;-58
2022/11/22 00:26:02;;;;;;;6.65;4.18;;;;;;;5.86;100.00;96865.84;5097521;28;20043;-58
2022/11/22 00:28:27;;;;;;;9.43;4.00;;;;;;;5.87;100.00;96858.91;5089348;28;20088;-59
2022/11/22 00:30:53;;;;;;;7.20;4.35;;;;;;;5.81;100.00;96860.34;5098362;28;22301;-57
2022/11/22 00:33:18;;;;;;;5.95;4.00;;;;;;;5.46;100.00;96791.75;5101878;27;20035;-60
2022/11/22 00:35:45;;;;;;;7.93;4.20;;;;;;;5.78;100.00;96840.03;5099721;28;20031;-59
2022/11/22 00:38:11;;;;;;;5.88;3.33;;;;;;;5.71;100.00;96826.16;5082373;28;20103;-60
2022/11/22 00:40:37;;;;;;;5.68;2.88;;;;;;;5.76;100.00;96829.06;5098808;28;20031;-61
2022/11/22 00:43:02;;;;;;;6.18;3.05;;;;;;;5.79;100.00;96828.75;5114676;27;20397;-58
2022/11/22 00:45:28;;;;;;;6.43;3.20;;;;;;;5.71;100.00;96832.13;5097007;28;20027;-59
2022/11/22 00:47:53;;;;;;;6.20;3.15;;;;;;;5.72;100.00;96822.63;5098057;28;20119;-59
2022/11/22 00:50:18;;;;;;;5.88;2.42;;;;;;;5.70;100.00;96825.34;5079860;28;20130;-59
2022/11/22 00:52:45;;;;;;;5.57;2.60;;;;;;;5.63;100.00;96824.38;5083061;28;20055;-59
2022/11/22 00:55:10;;;;;;;5.90;2.92;;;;;;;5.71;100.00;96815.84;5095403;28;20027;-58
2022/11/22 00:57:36;;;;;;;5.07;2.63;;;;;;;5.39;100.00;96774.34;5084223;28;20027;-59
2022/11/22 01:00:02;;;;;;;6.10;2.58;;;;;;;5.69;100.00;96817.75;5099399;28;20409;-61
2022/11/22 01:02:27;;;;;;;4.28;1.80;;;;;;;5.65;100.00;96814.69;5098326;27;21257;-59
2022/11/22 01:04:52;;;;;;;3.15;1.20;;;;;;;5.73;100.00;96801.00;5086772;28;20043;-60
2022/11/22 01:07:18;;;;;;;3.40;1.23;;;;;;;5.50;100.00;96764.72;5101344;27;20754;-59
2022/11/22 01:09:43;;;;;;;2.97;1.05;;;;;;;5.75;100.00;96819.72;5105806;27;20047;-59
2022/11/22 01:12:09;;;;;;;3.65;1.33;;;;;;;5.70;100.00;96806.50;5077710;28;20020;-58
2022/11/22 01:14:34;;;;;;;3.15;1.02;;;;;;;5.51;100.00;96763.72;5078120;28;20491;-58
2022/11/22 01:16:59;;;;;;;2.83;1.05;;;;;;;5.70;100.00;96794.41;5090518;28;20509;-58
2022/11/22 01:19:25;;;;;;;2.75;1.13;;;;;;;5.72;100.00;96796.81;5082142;28;20027;-58
2022/11/22 01:21:50;;;;;;;2.45;0.80;;;;;;;5.66;100.00;96777.63;5095920;27;20110;-56
2022/11/22 01:24:16;;;;;;;2.83;1.00;;;;;;;5.71;100.00;96774.56;5100690;28;20024;-57
2022/11/22 01:26:41;;;;;;;3.28;1.10;;;;;;;5.72;100.00;96773.63;5079806;28;20657;-58
2022/11/22 01:29:07;;;;;;;2.50;0.82;;;;;;;5.73;100.00;96764.91;5096919;28;20032;-58
2022/11/22 01:31:32;;;;;;;2.72;1.00;;;;;;;5.71;100.00;96759.09;5103212;27;20055;-58
2022/11/22 01:33:58;;;;;;;3.15;1.10;;;;;;;5.69;100.00;96758.44;5095249;28;20042;-58
2022/11/22 01:36:24;;;;;;;2.65;0.98;;;;;;;5.60;100.00;96752.47;5097947;28;20058;-59
2022/11/22 01:38:50;;;;;;;2.97;0.80;;;;;;;5.68;100.00;96767.97;5100332;28;20031;-58
2022/11/22 01:41:16;;;;;;;4.10;1.30;;;;;;;5.71;100.00;96764.25;5115279;27;20047;-58
2022/11/22 01:43:42;;;;;;;2.63;0.90;;;;;;;5.60;100.00;96749.91;5083344;28;20058;-58
2022/11/22 01:46:33;;;;;;;2.55;0.80;;;;;;;5.63;100.00;96759.09;5099475;28;20028;-60
2022/11/22 01:49:02;;;;;;;3.10;1.00;;;;;;;5.53;100.00;96742.00;5109631;27;20031;-59
2022/11/22 01:51:43;;;;;;;2.45;0.90;;;;;;;5.64;100.00;96747.81;5082775;28;20035;-60
2022/11/22 01:54:12;;;;;;;4.35;1.08;;;;;;;5.36;100.00;96701.69;5095800;28;20031;-59
2022/11/22 01:56:39;;;;;;;2.50;0.98;;;;;;;5.34;100.00;96698.47;5100398;28;20032;-59
2022/11/22 01:59:07;;;;;;;3.45;1.13;;;;;;;5.58;100.00;96747.50;5080041;28;20116;-58
2022/11/22 02:01:33;;;;;;;2.92;0.90;;;;;;;5.55;100.00;96732.34;5081021;28;20024;-59
2022/11/22 02:03:59;;;;;;;2.92;0.90;;;;;;;5.57;100.00;96732.97;5108468;27;20493;-58
2022/11/22 02:06:31;;;;;;;3.53;1.10;;;;;;;5.62;100.00;96726.53;5081845;28;20825;-59
2022/11/22 02:09:09;;;;;;;2.83;0.90;;;;;;;5.59;100.00;96715.56;5101462;28;20038;-57
2022/11/22 02:11:37;;;;;;;2.47;0.77;;;;;;;5.55;100.00;96709.13;5096572;28;20040;-58
2022/11/22 02:14:04;;;;;;;1.88;0.70;;;;;;;5.55;100.00;96701.41;5098445;28;20576;-59
2022/11/22 02:16:30;;;;;;;2.15;0.70;;;;;;;5.52;100.00;96688.81;5099956;28;20103;-58
2022/11/22 02:18:55;;;;;;;2.22;0.75;;;;;;;5.31;100.00;96644.66;5098534;28;20041;-59
2022/11/22 02:21:21;;;;;;;3.25;0.85;;;;;;;5.56;100.00;96679.00;5092048;28;20038;-59
2022/11/22 02:23:52;;;;;;;2.10;0.70;;;;;;;5.54;100.00;96678.34;5111460;27;20058;-59
2022/11/22 02:26:17;;;;;;;2.55;0.70;;;;;;;5.52;100.00;96662.25;5098497;28;20027;-58
2022/11/22 02:28:43;;;;;;;2.50;0.85;;;;;;;5.55;100.00;96665.31;5075449;28;20040;-58
2022/11/22 02:31:32;;;;;;;2.08;0.73;;;;;;;5.51;100.00;96653.72;5077628;28;20039;-59
2022/11/22 02:33:58;;;;;;;1.98;0.75;;;;;;;5.54;100.00;96647.41;5088300;27;20031;-60
2022/11/22 02:36:23;;;;;;;2.95;0.80;;;;;;;5.25;100.00;96591.97;5089657;28;20584;-58
2022/11/22 02:38:48;;;;;;;1.60;0.65;;;;;;;5.26;100.00;96582.50;5091876;28;20066;-58
2022/11/22 02:41:14;;;;;;;2.92;0.90;;;;;;;5.18;100.00;96566.06;5077441;28;20050;-59
2022/11/22 02:43:43;;;;;;;2.50;0.90;;;;;;;5.46;100.00;96622.44;5098884;28;20039;-58
2022/11/22 02:46:11;;;;;;;2.30;0.80;;;;;;;5.50;100.00;96615.19;5091819;28;20028;-58
2022/11/22 02:48:44;;;;;;;2.88;0.88;;;;;;;5.46;100.00;96608.72;5094566;28;20465;-58
2022/11/22 02:51:10;;;;;;;2.33;0.77;;;;;;;5.41;100.00;96608.44;5088210;28;20032;-57
2022/11/22 02:53:36;;;;;;;2.00;0.70;;;;;;;5.45;100.00;96609.72;5078935;28;20035;-59
2022/11/22 02:56:01;;;;;;;2.25;0.80;;;;;;;5.20;100.00;96555.59;5094453;28;20612;-58
2022/11/22 02:58:26;;;;;;;2.30;0.70;;;;;;;5.46;100.00;96606.16;5097613;28;20039;-57
2022/11/22 03:00:52;;;;;;;1.85;0.80;;;;;;;5.49;100.00;96595.53;5089710;28;20031;-60
2022/11/22 03:03:17;;;;;;;1.80;0.63;;;;;;;5.49;100.00;96587.78;5104265;27;20111;-58
2022/11/22 03:05:43;;;;;;;3.28;0.85;;;;;;;5.48;100.00;96581.84;5091153;28;20042;-57
2022/11/22 03:08:09;;;;;;;2.30;0.70;;;;;;;5.50;100.00;96587.63;5111505;27;20032;-58
2022/11/22 03:10:34;;;;;;;2.80;1.08;;;;;;;5.56;100.00;96586.19;5095857;27;20749;-58
2022/11/22 03:12:59;;;;;;;2.33;0.90;;;;;;;5.64;100.00;96585.38;5098083;28;20038;-58
2022/11/22 03:15:25;;;;;;;2.63;0.85;;;;;;;5.66;100.00;96580.84;5078199;28;20058;-57
2022/11/22 03:18:01;;;;;;;1.90;0.80;;;;;;;5.54;100.00;96580.38;5109223;27;20036;-58
2022/11/22 03:20:27;;;;;;;3.03;1.10;;;;;;;5.47;100.00;96579.44;5111028;28;20028;-58
2022/11/22 03:22:52;;;;;;;2.67;0.80;;;;;;;5.53;100.00;96571.84;5109541;28;20058;-57
2022/11/22 03:25:18;;;;;;;3.03;0.90;;;;;;;5.55;100.00;96553.66;5091776;28;20028;-57
2022/11/22 03:27:43;;;;;;;2.05;0.70;;;;;;;5.63;100.00;96560.56;5093983;28;20035;-58
2022/11/22 03:30:09;;;;;;;3.25;0.80;;;;;;;5.65;100.00;96549.09;5093483;28;20035;-58
2022/11/22 03:32:35;;;;;;;2.85;1.10;;;;;;;5.50;100.00;96545.59;5080369;28;20042;-57
2022/11/22 03:35:00;;;;;;;2.60;0.93;;;;;;;5.44;100.00;96541.91;5093508;28;20845;-58
2022/11/22 03:37:26;;;;;;;1.85;0.60;;;;;;;5.43;100.00;96540.28;5069117;28;20024;-60
2022/11/22 03:39:51;;;;;;;3.90;1.00;;;;;;;5.42;100.00;96549.00;5109147;28;20114;-59
2022/11/22 03:42:17;;;;;;;2.63;0.90;;;;;;;5.32;100.00;96538.03;5105805;27;20095;-58
2022/11/22 03:44:42;;;;;;;2.33;0.85;;;;;;;5.10;100.00;96504.22;5089890;28;20028;-58
2022/11/22 03:47:07;;;;;;;2.33;0.90;;;;;;;5.37;100.00;96546.09;5095701;28;20116;-57
2022/11/22 03:49:33;;;;;;;2.40;0.80;;;;;;;5.41;100.00;96539.63;5110822;28;20110;-58
2022/11/22 03:51:58;;;;;;;2.60;0.80;;;;;;;5.17;100.00;96504.41;5095583;28;20039;-59
2022/11/22 03:54:24;;;;;;;2.50;0.95;;;;;;;5.37;100.00;96541.75;5094052;28;20292;-58
2022/11/22 03:56:49;;;;;;;3.60;0.90;;;;;;;5.05;100.00;96490.22;5097018;28;20042;-58
2022/11/22 03:59:14;;;;;;;2.55;0.65;;;;;;;5.38;100.00;96542.53;5111488;27;20032;-58
2022/11/22 04:01:40;;;;;;;2.78;0.90;;;;;;;5.33;100.00;96540.47;5103693;28;20027;-57
2022/11/22 04:04:05;;;;;;;4.93;1.00;;;;;;;5.38;100.00;96530.47;5076351;28;20034;-58
2022/11/22 04:06:31;;;;;;;1.77;0.52;;;;;;;5.38;100.00;96539.97;5079082;28;20035;-59
2022/11/22 04:08:56;;;;;;;1.83;0.70;;;;;;;5.12;100.00;96506.66;5078583;28;20438;-58
2022/11/22 04:11:21;;;;;;;2.05;0.68;;;;;;;5.39;100.00;96536.44;5079742;28;20028;-58
2022/11/22 04:16:31;;;;;;;1.67;0.70;;;;;;;5.37;100.00;96515.97;5045475;28;1295692;-58
2022/11/22 04:18:56;;;;;;;1.88;0.60;;;;;;;5.41;100.00;96526.75;5106081;28;20024;-58
2022/11/22 04:21:33;;;;;;;1.85;0.70;;;;;;;5.32;100.00;96510.50;5081349;28;20720;-57
2022/11/22 04:26:59;;;;;;;2.17;0.60;;;;;;;5.27;100.00;96506.78;5080131;28;20040;-56
2022/11/22 04:29:25;;;;;;;2.85;0.98;;;;;;;5.20;100.00;96507.44;5099086;28;20038;-57
2022/11/22 04:34:35;;;;;;;1.75;0.60;;;;;;;5.22;100.00;96507.28;5095170;28;20062;-57
2022/11/22 04:37:01;;;;;;;2.95;0.90;;;;;;;5.25;100.00;96511.31;5075286;28;20095;-57
2022/11/22 04:39:26;;;;;;;2.42;0.75;;;;;;;5.33;100.00;96514.69;5099836;28;20031;-58
2022/11/22 04:44:50;;;;;;;4.18;0.85;;;;;;;5.26;100.00;96507.78;5060504;28;20032;-57
2022/11/22 04:47:57;;;;;;;2.47;0.80;;;;;;;5.17;100.00;96492.31;5082003;28;20142;-58
2022/11/22 04:50:02;;;;;;;2.42;0.80;;;;;;;5.24;100.00;96499.38;5097172;28;20652;-59
2022/11/22 04:55:12;;;;;;;2.33;0.80;;;;;;;5.18;100.00;96481.06;5094240;28;20039;-57
2022/11/22 04:57:37;;;;;;;2.03;0.65;;;;;;;5.31;100.00;96490.84;5077928;28;20713;-57
2022/11/22 05:00:03;;;;;;;2.53;0.63;;;;;;;5.30;100.00;96496.16;5101049;28;20106;-57
2022/11/22 05:02:28;;;;;;;3.03;1.05;;;;;;;5.30;100.00;96496.16;5098281;28;20066;-58
2022/11/22 05:04:54;;;;;;;1.27;0.50;;;;;;;5.30;100.00;96501.31;5099987;28;20634;-57
2022/11/22 05:07:19;;;;;;;1.73;0.50;;;;;;;5.24;100.00;96491.66;5078532;28;20139;-58
2022/11/22 05:09:44;;;;;;;1.67;0.63;;;;;;;5.05;100.00;96459.31;5107145;28;20039;-57
2022/11/22 05:12:10;;;;;;;2.05;0.70;;;;;;;5.03;100.00;96469.78;5098641;28;20035;-58
2022/11/22 05:14:35;;;;;;;2.33;0.70;;;;;;;5.26;100.00;96508.56;5078628;28;20519;-59
2022/11/22 05:17:01;;;;;;;1.95;0.73;;;;;;;5.28;100.00;96506.63;5081860;28;20031;-59
2022/11/22 05:19:26;;;;;;;2.47;0.77;;;;;;;5.26;100.00;96506.00;5085427;28;20774;-60
2022/11/22 05:21:51;;;;;;;2.50;0.80;;;;;;;4.94;100.00;96445.00;5096467;28;20114;-59
2022/11/22 05:24:17;;;;;;;2.33;0.73;;;;;;;5.29;100.00;96495.34;5101924;28;20016;-58
2022/11/22 05:26:42;;;;;;;2.25;0.70;;;;;;;5.25;100.00;96496.66;5090012;28;20032;-57
2022/11/22 05:29:09;;;;;;;2.38;0.70;;;;;;;5.15;100.00;96473.63;5098882;28;20024;-58
2022/11/22 05:31:36;;;;;;;2.17;0.80;;;;;;;4.98;100.00;96451.41;5101433;28;20115;-57
2022/11/22 05:34:02;;;;;;;2.45;0.80;;;;;;;5.22;100.00;96486.69;5105642;27;20024;-59
2022/11/22 05:36:30;;;;;;;1.70;0.68;;;;;;;5.18;100.00;96477.66;5080703;28;20080;-58
2022/11/22 05:38:55;;;;;;;2.13;0.75;;;;;;;5.03;100.00;96450.94;5101888;28;20091;-57
2022/11/22 05:41:20;;;;;;;3.58;1.13;;;;;;;5.00;100.00;96440.00;5101379;27;20035;-57
2022/11/22 05:43:46;;;;;;;3.78;0.80;;;;;;;5.11;100.00;96466.38;5099205;28;20081;-58
2022/11/22 05:46:22;;;;;;;3.35;1.10;;;;;;;5.23;100.00;96495.22;5101975;28;20035;-58
2022/11/22 05:48:47;;;;;;;2.85;0.95;;;;;;;5.25;100.00;96498.44;5099089;28;20031;-57
2022/11/22 05:51:18;;;;;;;2.70;1.00;;;;;;;5.24;100.00;96482.16;5083636;28;20639;-57
2022/11/22 05:53:44;;;;;;;2.95;1.25;;;;;;;5.25;100.00;96501.00;5098506;28;20041;-57
2022/11/22 05:56:12;;;;;;;3.13;1.02;;;;;;;5.24;100.00;96487.31;5082400;28;20080;-58
2022/11/22 05:58:37;;;;;;;2.28;0.77;;;;;;;5.27;100.00;96475.88;5101193;28;20031;-58
2022/11/22 06:01:08;;;;;;;1.92;0.77;;;;;;;5.25;100.00;96473.44;5112118;27;20683;-60
2022/11/22 06:03:34;;;;;;;2.15;0.70;;;;;;;5.36;100.00;96487.78;5083342;28;20031;-58
2022/11/22 06:05:59;;;;;;;2.35;0.80;;;;;;;5.09;100.00;96439.97;5097560;28;20042;-58
2022/11/22 06:08:25;;;;;;;2.28;0.90;;;;;;;5.35;100.00;96488.75;5102272;28;20028;-58
2022/11/22 06:10:50;;;;;;;2.15;0.80;;;;;;;5.26;100.00;96484.59;5100693;28;20062;-58
2022/11/22 06:13:16;;;;;;;3.60;1.15;;;;;;;5.27;100.00;96478.44;5099181;27;20035;-59
2022/11/22 06:15:41;;;;;;;5.40;1.13;;;;;;;4.98;100.00;96433.41;5097447;28;20024;-60
2022/11/22 06:18:06;;;;;;;2.95;1.15;;;;;;;5.30;100.00;96489.22;5081428;28;20497;-58
2022/11/22 06:20:32;;;;;;;2.78;0.95;;;;;;;5.20;100.00;96471.38;5081045;28;20036;-58
2022/11/22 06:22:58;;;;;;;2.38;0.85;;;;;;;5.34;100.00;96476.81;5078936;28;20023;-57
2022/11/22 06:25:24;;;;;;;2.10;0.80;;;;;;;5.32;100.00;96474.41;5100148;28;20441;-57
2022/11/22 06:27:49;;;;;;;2.13;0.80;;;;;;;5.31;100.00;96469.41;5090822;28;20501;-58
2022/11/22 06:30:15;;;;;;;1.80;0.80;;;;;;;5.35;100.00;96455.25;5098048;28;20660;-58
2022/11/22 06:32:40;;;;;;;4.07;1.30;;;;;;;5.11;100.00;96417.44;5094678;28;20125;-58
2022/11/22 06:35:06;;;;;;;3.50;1.10;;;;;;;5.33;100.00;96447.69;5079739;28;20539;-57
2022/11/22 06:37:31;;;;;;;4.28;1.30;;;;;;;5.32;100.00;96433.19;5095864;28;20130;-58
2022/11/22 06:39:57;;;;;;;3.63;1.23;;;;;;;5.31;100.00;96420.44;5099466;28;20108;-58
2022/11/22 06:42:22;;;;;;;4.40;1.20;;;;;;;5.31;100.00;96412.72;5110137;27;20027;-58
2022/11/22 06:44:47;;;;;;;2.50;0.85;;;;;;;5.39;100.00;96417.88;5094023;28;20513;-57
2022/11/22 06:47:13;;;;;;;3.20;1.10;;;;;;;5.39;100.00;96420.44;5094832;27;20023;-58
2022/11/22 06:49:38;;;;;;;2.45;0.80;;;;;;;5.39;100.00;96423.03;5082172;28;20044;-57
2022/11/22 06:52:04;;;;;;;2.88;0.90;;;;;;;5.14;100.00;96375.91;5077618;28;20024;-58
2022/11/22 06:54:29;;;;;;;2.13;0.75;;;;;;;5.41;100.00;96405.63;5095531;28;20038;-59
2022/11/22 06:56:55;;;;;;;3.20;0.90;;;;;;;5.47;100.00;96410.09;5098570;28;20868;-59
2022/11/22 06:59:20;;;;;;;2.72;0.90;;;;;;;5.48;100.00;96398.84;5106761;27;20039;-58
2022/11/22 07:01:45;;;;;;;2.47;1.00;;;;;;;5.48;100.00;96392.88;5106202;27;20031;-60
2022/11/22 07:04:11;;;;;;;2.60;0.80;;;;;;;5.51;100.00;96395.09;5112816;27;20032;-59
2022/11/22 07:06:37;;;;;;;3.15;0.80;;;;;;;5.52;100.00;96400.09;5105932;27;20080;-59
2022/11/22 07:09:05;;;;;;;2.72;0.85;;;;;;;5.36;100.00;96351.97;5083506;28;20723;-59
2022/11/22 07:11:31;;;;;;;2.55;0.80;;;;;;;5.61;100.00;96390.56;5097364;28;20708;-58
2022/11/22 07:13:58;;;;;;;2.20;0.80;;;;;;;5.61;100.00;96379.47;5079828;28;20043;-60
2022/11/22 07:16:24;;;;;;;1.95;0.68;;;;;;;5.63;100.00;96378.31;5090298;28;20028;-62
2022/11/22 07:18:49;;;;;;;4.72;1.17;;;;;;;5.56;100.00;96373.00;5088526;28;20028;-60
2022/11/22 07:21:22;;;;;;;2.38;0.70;;;;;;;5.34;100.00;96319.63;5087610;27;20032;-60
2022/11/22 07:23:53;;;;;;;3.28;1.17;;;;;;;5.68;100.00;96364.91;5089173;28;20119;-60
2022/11/22 07:26:20;;;;;;;2.53;0.88;;;;;;;5.21;100.00;96284.09;5082883;28;20024;-59
2022/11/22 07:28:46;;;;;;;4.15;1.52;;;;;;;5.75;100.00;96366.66;5083295;28;20074;-62
2022/11/22 07:31:13;;;;;;;3.10;1.17;;;;;;;5.74;100.00;96359.88;5079722;28;20083;-61
2022/11/22 07:33:39;;;;;;;3.53;1.70;;;;;;;5.80;100.00;96344.69;5085346;28;20032;-60
2022/11/22 07:36:15;;;;;;;4.20;1.63;;;;;;;5.81;100.00;96359.22;5099006;28;20027;-61
2022/11/22 07:38:41;;;;;;;4.45;1.70;;;;;;;5.88;100.00;96349.81;5102091;27;20036;-60
2022/11/22 07:41:07;;;;;;;4.68;1.80;;;;;;;5.71;100.00;96310.41;5114751;27;20065;-60
2022/11/22 07:43:33;;;;;;;4.93;1.40;;;;;;;6.01;100.00;96346.72;5095639;28;20042;-59
2022/11/22 07:45:59;;;;;;;6.60;3.42;;;;;;;6.02;100.00;96341.34;5091525;28;20027;-61
2022/11/22 07:48:25;;;;;;;3.35;1.20;;;;;;;6.19;100.00;96344.66;5098634;28;20036;-60
2022/11/22 07:50:50;;;;;;;11.70;4.63;;;;;;;6.14;100.00;96327.09;5097257;28;20024;-59
2022/11/22 07:53:15;;;;;;;2.40;0.95;;;;;;;6.35;100.00;96329.03;5100659;28;20069;-61
2022/11/22 07:55:41;;;;;;;2.92;1.00;;;;;;;6.12;100.00;96297.28;5086908;28;20031;-60
2022/11/22 07:58:06;;;;;;;3.35;1.20;;;;;;;6.36;100.00;96337.56;5099002;28;20027;-60
2022/11/22 08:00:32;;;;;;;3.40;1.20;;;;;;;6.43;100.00;96343.66;5105165;27;20099;-60
2022/11/22 08:02:58;;;;;;;2.83;1.00;;;;;;;6.44;100.00;96345.25;5079611;28;20031;-61
2022/11/22 08:05:24;;;;;;;3.75;1.50;;;;;;;6.20;100.00;96292.06;5099642;28;20774;-59
2022/11/22 08:07:50;;;;;;;2.95;1.13;;;;;;;6.17;100.00;96287.25;5100067;28;20038;-61
2022/11/22 08:10:16;;;;;;;3.80;1.25;;;;;;;6.56;100.00;96334.53;5094784;28;20813;-62
2022/11/22 08:12:42;;;;;;;4.53;2.30;;;;;;;6.40;100.00;96331.09;5099401;28;20555;-60
2022/11/22 08:15:09;;;;;;;4.28;1.65;;;;;;;6.27;100.00;96305.88;5094689;28;20106;-59
2022/11/22 08:17:34;;;;;;;3.53;1.33;;;;;;;6.21;100.00;96306.56;5096110;28;20055;-60
2022/11/22 08:20:00;;;;;;;3.78;1.40;;;;;;;6.26;100.00;96288.78;5098270;28;20052;-59
2022/11/22 08:22:25;;;;;;;4.10;1.80;;;;;;;6.59;100.00;96326.41;5080997;28;20036;-59
2022/11/22 08:24:50;;;;;;;3.95;1.75;;;;;;;6.66;100.00;96327.31;5081972;28;20024;-62
2022/11/22 08:27:16;;;;;;;4.72;1.60;;;;;;;6.63;100.00;96315.56;5083508;28;20050;-60
2022/11/22 08:29:41;;;;;;;3.42;1.55;;;;;;;6.88;100.00;96326.47;5098091;28;20023;-60
2022/11/22 08:32:07;;;;;;;3.47;1.52;;;;;;;6.69;100.00;96275.31;5113023;27;20050;-58
2022/11/22 08:34:32;;;;;;;4.15;1.73;;;;;;;6.90;100.00;96326.28;5085941;28;20638;-60
2022/11/22 08:36:58;;;;;;;4.53;1.88;;;;;;;6.67;100.00;96287.59;5099145;28;20031;-59
2022/11/22 08:39:23;;;;;;;3.45;1.25;;;;;;;6.68;100.00;96271.94;5079993;28;20024;-61
2022/11/22 08:41:48;;;;;;;3.58;1.40;;;;;;;6.95;100.00;96307.66;5098058;28;20070;-59
2022/11/22 08:44:14;;;;;;;4.20;1.77;;;;;;;6.93;100.00;96307.84;5096566;28;20032;-59
2022/11/22 08:46:39;;;;;;;3.03;1.27;;;;;;;7.00;100.00;96295.81;5092618;28;20024;-59
2022/11/22 08:49:05;;;;;;;3.30;1.30;;;;;;;7.01;100.00;96296.59;5095984;28;20034;-59
2022/11/22 08:51:35;;;;;;;2.95;1.10;;;;;;;7.03;100.00;96292.09;5106691;28;20061;-59
2022/11/22 08:54:01;;;;;;;3.40;1.30;;;;;;;6.99;100.00;96265.81;5117041;27;20168;-59
2022/11/22 08:56:26;;;;;;;2.50;0.82;;;;;;;7.21;100.00;96286.53;5103540;28;20019;-61
2022/11/22 08:58:52;;;;;;;4.25;1.50;;;;;;;7.22;100.00;96294.09;5117299;27;20490;-59
2022/11/22 09:01:20;;;;;;;2.13;0.90;;;;;;;7.27;100.00;96278.84;5084623;28;20556;-61
2022/11/22 09:03:45;;;;;;;2.90;0.70;;;;;;;7.30;100.00;96272.50;5083867;28;20066;-59
2022/11/22 09:06:13;;;;;;;2.47;1.02;;;;;;;7.38;100.00;96256.91;5104072;28;20055;-59
2022/11/22 09:08:38;;;;;;;2.95;1.00;;;;;;;7.43;100.00;96257.16;5103729;28;20027;-60
2022/11/22 09:11:06;;;;;;;3.05;1.00;;;;;;;7.45;100.00;96241.47;5089832;28;20370;-59
2022/11/22 09:13:32;;;;;;;2.67;1.00;;;;;;;7.65;100.00;96244.28;5103037;28;20066;-60
2022/11/22 09:16:02;;;;;;;2.40;0.80;;;;;;;7.70;100.00;96240.16;5092467;28;20063;-60
2022/11/22 09:18:28;;;;;;;2.97;1.00;;;;;;;7.46;100.00;96197.31;5084998;28;20081;-62
2022/11/22 09:20:58;;;;;;;2.72;0.90;;;;;;;7.64;100.00;96189.13;5093182;28;20039;-61
2022/11/22 09:23:23;;;;;;;2.42;0.65;;;;;;;7.98;96.96;96212.72;5082373;28;20028;-59
2022/11/22 09:25:56;;;;;;;2.80;0.80;;;;;;;8.28;96.37;96214.13;5095051;28;20024;-60
2022/11/22 09:28:21;;;;;;;1.90;0.70;;;;;;;8.75;86.41;96205.88;5104092;28;20032;-60
2022/11/22 09:30:47;;;;;;;1.77;0.50;;;;;;;8.94;90.46;96223.28;5103600;28;20031;-61
2022/11/22 09:33:12;;;;;;;2.47;0.70;;;;;;;8.95;82.78;96209.34;5100286;28;20107;-60
2022/11/22 09:35:37;;;;;;;2.03;0.60;;;;;;;8.93;87.77;96198.38;5095718;28;20024;-60
2022/11/22 09:38:03;;;;;;;2.53;0.77;;;;;;;8.66;92.83;96198.25;5092983;27;20047;-59
2022/11/22 09:40:28;;;;;;;2.70;0.98;;;;;;;8.91;85.82;96179.63;5098067;27;20134;-60
2022/11/22 09:43:10;;;;;;;5.80;0.68;;;;;;;9.29;79.04;96192.13;5100631;28;20032;-60
2022/11/22 09:45:54;;;;;;;3.17;0.70;;;;;;;9.22;84.17;96181.75;5081597;28;20024;-59
2022/11/22 09:48:36;;;;;;;2.75;0.80;;;;;;;9.04;81.33;96145.97;5103680;28;20084;-60
2022/11/22 09:51:09;;;;;;;1.67;0.60;;;;;;;9.57;75.57;96162.66;5094353;28;20029;-60
2022/11/22 09:53:46;;;;;;;1.05;0.38;;;;;;;10.07;71.95;96183.81;5079147;28;20035;-61
2022/11/22 09:56:14;;;;;;;2.47;0.77;;;;;;;10.05;72.57;96165.03;5104428;27;20525;-60
2022/11/22 09:58:50;;;;;;;3.92;1.30;;;;;;;9.59;78.98;96166.63;5096061;28;20501;-59
2022/11/22 10:01:21;;;;;;;6.32;2.15;;;;;;;9.46;81.47;96176.22;5105127;27;20020;-59
2022/11/22 10:03:52;;;;;;;6.53;1.20;;;;;;;9.72;75.25;96136.50;5094754;28;20056;-60
2022/11/22 10:06:34;;;;;;;3.42;0.80;;;;;;;9.75;78.15;96156.88;5101776;28;20020;-58
2022/11/22 10:09:39;;;;;;;3.03;0.85;;;;;;;9.82;74.12;96163.66;5096469;28;20055;-58
2022/11/22 10:12:49;;;;;;;2.50;0.77;;;;;;;9.70;73.81;96147.09;5097595;27;20472;-59
2022/11/22 10:15:52;;;;;;;2.50;0.70;;;;;;;9.77;73.18;96158.28;5081029;28;20039;-59
2022/11/22 10:18:49;;;;;;;3.05;0.90;;;;;;;9.79;74.50;96153.69;5095295;28;20023;-59
2022/11/22 10:21:14;;;;;;;2.90;0.90;;;;;;;9.66;75.55;96152.88;5104077;27;20020;-59
2022/11/22 10:23:41;;;;;;;2.40;0.55;;;;;;;9.73;75.69;96107.78;5102602;28;20084;-58
2022/11/22 10:26:20;;;;;;;2.25;0.70;;;;;;;10.16;71.77;96137.69;5098701;28;20031;-60
2022/11/22 10:29:07;;;;;;;2.42;0.60;;;;;;;10.15;67.50;96128.31;5098090;28;20040;-61
2022/11/22 10:31:57;;;;;;;3.47;0.95;;;;;;;10.30;66.42;96105.50;5103437;28;20027;-59
2022/11/22 10:34:49;;;;;;;2.85;0.90;;;;;;;10.58;62.47;96126.00;5101238;28;20103;-58
2022/11/22 10:37:33;;;;;;;2.42;0.73;;;;;;;10.57;68.90;96118.44;5097411;28;20035;-58
2022/11/22 10:40:11;;;;;;;1.77;0.50;;;;;;;10.64;66.62;96131.38;5100690;28;20034;-58
2022/11/22 10:43:15;;;;;;;1.75;0.60;;;;;;;10.71;62.59;96106.16;5084654;28;20566;-59
2022/11/22 10:45:45;;;;;;;2.08;0.60;;;;;;;10.48;64.48;96084.09;5092229;27;20749;-61
2022/11/22 10:48:32;;;;;;;1.88;0.60;;;;;;;10.66;71.06;96116.38;5100919;28;20035;-59
2022/11/22 10:51:14;;;;;;;1.73;0.55;;;;;;;10.48;69.68;96107.47;5103570;28;20641;-59
2022/11/22 10:53:51;;;;;;;2.30;0.80;;;;;;;10.39;63.97;96088.69;5102937;28;20031;-59
2022/11/22 10:56:55;;;;;;;2.72;0.90;;;;;;;10.72;65.57;96110.38;5093723;28;20027;-59
2022/11/22 10:59:29;;;;;;;2.85;0.73;;;;;;;10.65;66.17;96114.81;5051510;28;20461;-59
2022/11/22 11:02:16;;;;;;;3.50;1.00;;;;;;;10.62;65.34;96108.19;5090525;28;20114;-59
2022/11/22 11:04:42;;;;;;;1.50;0.52;;;;;;;10.75;64.04;96104.75;5096144;28;20107;-59
2022/11/22 11:07:16;;;;;;;2.72;0.90;;;;;;;10.89;61.87;96105.50;5100198;28;20443;-58
2022/11/22 11:09:44;;;;;;;2.40;0.70;;;;;;;10.78;60.05;96080.94;5080562;28;20023;-59
2022/11/22 11:12:19;;;;;;;2.05;0.60;;;;;;;10.93;62.37;96085.88;5078064;28;20595;-59
2022/11/22 11:14:49;;;;;;;3.38;0.90;;;;;;;11.16;56.34;96088.72;5080114;28;20118;-58
2022/11/22 11:17:24;;;;;;;3.20;1.00;;;;;;;11.05;54.77;96044.41;5117771;27;20028;-59
2022/11/22 11:19:51;;;;;;;2.63;0.70;;;;;;;11.49;50.50;96073.91;5099703;28;20860;-60
2022/11/22 11:22:22;;;;;;;2.30;0.70;;;;;;;11.59;49.50;96032.59;5097611;28;20030;-60
2022/11/22 11:24:47;;;;;;;1.30;0.40;;;;;;;11.91;44.29;96037.72;5099067;28;20383;-60
2022/11/22 11:27:14;;;;;;;1.13;0.40;;;;;;;12.13;49.05;96060.75;5099214;28;20081;-59
2022/11/22 11:29:44;;;;;;;1.00;0.40;;;;;;;11.93;54.17;96059.13;5102886;27;20031;-60
2022/11/22 11:32:21;;;;;;;1.88;0.60;;;;;;;11.90;48.91;96052.56;5097979;28;20489;-59
2022/11/22 11:34:55;;;;;;;1.85;0.50;;;;;;;12.14;44.33;96034.47;5097379;28;20028;-60
2022/11/22 11:37:25;;;;;;;2.15;0.50;;;;;;;12.35;42.28;96043.66;5107099;27;20161;-59
2022/11/22 11:39:50;;;;;;;2.70;0.30;;;;;;;12.40;41.09;96033.38;5091040;28;20031;-59
2022/11/22 11:42:29;;;;;;;1.17;0.40;;;;;;;12.49;41.66;96052.91;5094315;28;20147;-59
2022/11/22 11:45:17;;;;;;;1.25;0.40;;;;;;;12.58;38.58;96037.75;5096497;28;20031;-60
2022/11/22 11:47:43;;;;;;;0.52;0.20;;;;;;;12.65;39.12;96038.47;5095155;27;20031;-58
2022/11/22 11:50:23;;;;;;;2.20;0.30;;;;;;;12.68;40.42;96042.44;5080850;28;20053;-59
2022/11/22 11:53:01;;;;;;;2.63;0.60;;;;;;;12.71;37.84;96042.00;5086923;28;20032;-59
2022/11/22 11:55:30;;;;;;;0.47;0.20;;;;;;;12.80;36.62;96043.28;5094124;28;20033;-60